Time;durP1;ratioP1;P1;durP2;ratioP2;P2;SDS_P1;SDS_P2;PMS_P1;PMS_P2;Temp;Humidity;BMP_temperature;BMP_pressure;BME280_temperature;BME280_humidity;BME280_pressure;Samples;Min_cycle;Max_cycle;Signal;HPM_P1;HPM_P2
2023/09/27 00:00:42;;;;;;;;;;;15.10;70.10;;;;;;4119291;28;20431;-91
2023/09/27 00:02:49;;;;;;;;;;;15.00;70.10;;;;;;4138956;28;19914;-91
2023/09/27 00:05:11;;;;;;;;;;;15.00;70.90;;;;;;4138779;28;20026;-90
2023/09/27 00:07:16;;;;;;;;;;;15.00;70.00;;;;;;4122934;28;20287;-91
2023/09/27 00:09:37;;;;;;;;;;;15.00;70.10;;;;;;4153863;28;20268;-90
2023/09/27 00:11:58;;;;;;;;;;;14.90;70.10;;;;;;4138801;28;21779;-91
2023/09/27 00:14:20;;;;;;;;;;;14.90;70.10;;;;;;4152586;28;20392;-92
2023/09/27 00:16:41;;;;;;;;;;;14.90;70.20;;;;;;4154950;28;20341;-92
2023/09/27 00:19:03;;;;;;;;;;;14.80;70.20;;;;;;4137691;28;20744;-92
2023/09/27 00:21:23;;;;;;;;;;;14.80;70.10;;;;;;4137434;28;20615;-92
2023/09/27 00:23:44;;;;;;;;;;;14.80;70.00;;;;;;4152783;28;20314;-91
2023/09/27 00:26:05;;;;;;;;;;;14.80;70.10;;;;;;4153460;28;19921;-91
2023/09/27 00:28:25;;;;;;;;;;;14.80;70.10;;;;;;4151302;28;20526;-92
2023/09/27 00:30:48;;;;;;;;;;;14.70;70.00;;;;;;4155514;28;20287;-91
2023/09/27 00:33:09;;;;;;;;;;;14.70;70.10;;;;;;4133198;28;20291;-93
2023/09/27 00:35:12;;;;;;;;;;;14.70;70.30;;;;;;4150300;28;19928;-91
2023/09/27 00:37:12;;;;;;;;;;;14.60;70.20;;;;;;4121227;28;20199;-90
2023/09/27 00:39:13;;;;;;;;;;;14.70;70.20;;;;;;4141437;28;19914;-90
2023/09/27 00:41:15;;;;;;;;;;;14.60;70.10;;;;;;4123681;28;20047;-91
2023/09/27 00:43:35;;;;;;;;;;;14.60;70.00;;;;;;4144574;28;20306;-93
2023/09/27 00:46:06;;;;;;;;;;;14.60;70.10;;;;;;4154128;28;19913;-91
2023/09/27 00:48:26;;;;;;;;;;;14.60;70.10;;;;;;4140541;28;19952;-90
2023/09/27 00:50:47;;;;;;;;;;;14.50;70.30;;;;;;4141859;28;20368;-90
2023/09/27 00:53:08;;;;;;;;;;;14.50;70.50;;;;;;4140821;28;20268;-91
2023/09/27 00:55:29;;;;;;;;;;;14.50;70.60;;;;;;4157389;28;20283;-90
2023/09/27 00:57:50;;;;;;;;;;;14.60;70.60;;;;;;4154958;28;20282;-90
2023/09/27 01:00:11;;;;;;;;;;;14.50;70.50;;;;;;4157389;28;20271;-91
2023/09/27 01:02:32;;;;;;;;;;;14.40;70.40;;;;;;4156950;28;19983;-91
2023/09/27 01:04:53;;;;;;;;;;;14.50;70.50;;;;;;4141235;28;20418;-92
2023/09/27 01:07:13;;;;;;;;;;;14.40;70.50;;;;;;4140569;28;20355;-90
2023/09/27 01:09:15;;;;;;;;;;;14.40;71.20;;;;;;4142116;28;19917;-91
2023/09/27 01:11:16;;;;;;;;;;;14.40;70.40;;;;;;4138674;28;20414;-92
2023/09/27 01:13:37;;;;;;;;;;;14.30;70.50;;;;;;4151231;28;19923;-90
2023/09/27 01:15:38;;;;;;;;;;;14.30;70.50;;;;;;4136441;28;19957;-89
2023/09/27 01:17:59;;;;;;;;;;;14.30;70.60;;;;;;4155081;28;20337;-90
2023/09/27 01:20:20;;;;;;;;;;;14.30;70.60;;;;;;4150879;28;19933;-90
2023/09/27 01:22:42;;;;;;;;;;;14.30;70.60;;;;;;4154001;28;19941;-91
2023/09/27 01:25:06;;;;;;;;;;;14.30;70.60;;;;;;4142329;28;20294;-90
2023/09/27 01:27:27;;;;;;;;;;;14.20;70.60;;;;;;4154037;28;20006;-91
2023/09/27 01:29:48;;;;;;;;;;;14.30;70.60;;;;;;4157759;28;20722;-92
2023/09/27 01:32:08;;;;;;;;;;;14.10;70.50;;;;;;4155091;28;20510;-92
2023/09/27 01:34:09;;;;;;;;;;;14.10;70.40;;;;;;4156542;28;20024;-91
2023/09/27 01:36:11;;;;;;;;;;;14.10;70.20;;;;;;4123952;28;20574;-90
2023/09/27 01:38:15;;;;;;;;;;;14.10;70.20;;;;;;4138516;28;20036;-91
2023/09/27 01:40:18;;;;;;;;;;;14.10;70.30;;;;;;4155744;28;19967;-92
2023/09/27 01:42:43;;;;;;;;;;;14.00;70.50;;;;;;4153093;28;19917;-91
2023/09/27 01:45:04;;;;;;;;;;;13.90;70.50;;;;;;4154471;28;19913;-90
2023/09/27 01:47:25;;;;;;;;;;;13.90;70.60;;;;;;4156388;28;19917;-91
2023/09/27 01:49:45;;;;;;;;;;;13.90;70.60;;;;;;4155027;28;20325;-92
2023/09/27 01:51:49;;;;;;;;;;;13.90;70.70;;;;;;4134018;28;19922;-91
2023/09/27 01:54:09;;;;;;;;;;;13.90;70.70;;;;;;4156420;28;20326;-90
2023/09/27 01:56:30;;;;;;;;;;;13.80;70.70;;;;;;4144669;28;19914;-90
2023/09/27 01:58:50;;;;;;;;;;;13.80;70.70;;;;;;4142234;28;19918;-91
2023/09/27 02:01:11;;;;;;;;;;;13.70;70.80;;;;;;4139997;28;20423;-90
2023/09/27 02:03:31;;;;;;;;;;;13.70;70.80;;;;;;4152602;28;20367;-91
2023/09/27 02:05:52;;;;;;;;;;;13.80;70.80;;;;;;4141526;28;19993;-91
2023/09/27 02:08:13;;;;;;;;;;;13.80;70.80;;;;;;4156726;28;20499;-90
2023/09/27 02:10:33;;;;;;;;;;;13.60;70.60;;;;;;4154364;28;20508;-91
2023/09/27 02:12:54;;;;;;;;;;;13.60;70.70;;;;;;4152906;28;19917;-91
2023/09/27 02:15:15;;;;;;;;;;;13.60;70.90;;;;;;4139318;28;20570;-90
2023/09/27 02:17:39;;;;;;;;;;;13.50;70.90;;;;;;4155617;28;20266;-91
2023/09/27 02:20:00;;;;;;;;;;;13.50;70.90;;;;;;4151805;28;19913;-92
2023/09/27 02:22:20;;;;;;;;;;;13.50;70.90;;;;;;4154113;28;19936;-89
2023/09/27 02:24:41;;;;;;;;;;;13.50;71.00;;;;;;4139753;28;20869;-90
2023/09/27 02:27:02;;;;;;;;;;;13.50;71.00;;;;;;4153259;28;20294;-90
2023/09/27 02:29:22;;;;;;;;;;;13.40;71.00;;;;;;4152566;28;20263;-90
2023/09/27 02:31:43;;;;;;;;;;;13.40;71.10;;;;;;4155846;28;20596;-91
2023/09/27 02:33:43;;;;;;;;;;;13.40;71.10;;;;;;4152248;28;20015;-91
2023/09/27 02:35:44;;;;;;;;;;;13.40;71.00;;;;;;4119692;28;19960;-91
2023/09/27 02:37:45;;;;;;;;;;;13.40;71.00;;;;;;4137516;28;19918;-91
2023/09/27 02:39:49;;;;;;;;;;;13.30;70.90;;;;;;4137944;28;20490;-92
2023/09/27 02:42:13;;;;;;;;;;;13.30;71.00;;;;;;4138865;28;20285;-91
2023/09/27 02:44:14;;;;;;;;;;;13.40;71.10;;;;;;4120556;28;20096;-90
2023/09/27 02:46:34;;;;;;;;;;;13.30;71.10;;;;;;4139824;28;19914;-91
2023/09/27 02:48:55;;;;;;;;;;;13.30;71.30;;;;;;4151404;28;20322;-90
2023/09/27 02:50:55;;;;;;;;;;;13.30;71.40;;;;;;4124534;28;19997;-91
2023/09/27 02:53:16;;;;;;;;;;;13.30;71.40;;;;;;4153864;28;20498;-90
2023/09/27 02:55:37;;;;;;;;;;;13.30;71.40;;;;;;4155307;28;20297;-90
2023/09/27 02:57:57;;;;;;;;;;;13.30;71.40;;;;;;4137052;28;20008;-91
2023/09/27 03:00:19;;;;;;;;;;;13.30;71.50;;;;;;4140639;28;20478;-90
2023/09/27 03:02:39;;;;;;;;;;;13.20;71.50;;;;;;4152823;28;20561;-91
2023/09/27 03:05:00;;;;;;;;;;;13.20;71.70;;;;;;4138390;28;19965;-91
2023/09/27 03:07:20;;;;;;;;;;;13.20;71.50;;;;;;4149613;28;20386;-91
2023/09/27 03:09:41;;;;;;;;;;;13.20;71.50;;;;;;4151623;28;19917;-92
2023/09/27 03:12:03;;;;;;;;;;;13.20;71.50;;;;;;4152094;28;20433;-91
2023/09/27 03:14:23;;;;;;;;;;;13.10;71.50;;;;;;4137209;28;20499;-91
2023/09/27 03:16:44;;;;;;;;;;;13.20;71.60;;;;;;4152072;28;20279;-92
2023/09/27 03:19:04;;;;;;;;;;;13.10;71.60;;;;;;4153925;28;20684;-91
2023/09/27 03:21:05;;;;;;;;;;;13.10;71.70;;;;;;4154148;28;19925;-92
2023/09/27 03:23:06;;;;;;;;;;;13.20;71.70;;;;;;4134258;28;19917;-92
2023/09/27 03:25:07;;;;;;;;;;;13.20;71.70;;;;;;4134879;28;19925;-91
2023/09/27 03:27:09;;;;;;;;;;;13.10;71.70;;;;;;4122246;28;20024;-90
2023/09/27 03:29:09;;;;;;;;;;;13.10;71.80;;;;;;4137952;28;20363;-90
2023/09/27 03:31:10;;;;;;;;;;;13.00;71.80;;;;;;4119850;28;19941;-91
2023/09/27 03:33:10;;;;;;;;;;;13.10;71.80;;;;;;4154729;28;19913;-91
2023/09/27 03:35:12;;;;;;;;;;;13.10;71.70;;;;;;4153273;28;19920;-91
2023/09/27 03:37:32;;;;;;;;;;;13.10;71.80;;;;;;4151226;28;21069;-90
2023/09/27 03:39:53;;;;;;;;;;;13.00;71.90;;;;;;4149070;28;20709;-89
2023/09/27 03:42:13;;;;;;;;;;;13.00;71.80;;;;;;4137033;28;20406;-92
2023/09/27 03:44:35;;;;;;;;;;;13.00;71.90;;;;;;4151690;28;20408;-91
2023/09/27 03:46:55;;;;;;;;;;;12.90;71.80;;;;;;4152244;28;20489;-91
2023/09/27 03:49:16;;;;;;;;;;;12.90;72.00;;;;;;4136030;28;20461;-90
2023/09/27 03:51:36;;;;;;;;;;;13.00;72.00;;;;;;4137418;28;20319;-91
2023/09/27 03:53:37;;;;;;;;;;;12.90;71.70;;;;;;4152950;28;19979;-91
2023/09/27 03:55:38;;;;;;;;;;;12.90;71.90;;;;;;4120065;28;19917;-90
2023/09/27 03:57:39;;;;;;;;;;;13.00;71.90;;;;;;4135460;28;19917;-92
2023/09/27 03:59:42;;;;;;;;;;;12.90;71.90;;;;;;4133418;28;20600;-91
2023/09/27 04:02:03;;;;;;;;;;;12.90;72.00;;;;;;4147190;28;20282;-90
2023/09/27 04:04:26;;;;;;;;;;;12.80;72.00;;;;;;4150196;28;19917;-89
2023/09/27 04:06:48;;;;;;;;;;;12.90;72.00;;;;;;4151062;28;20286;-89
2023/09/27 04:09:09;;;;;;;;;;;12.90;72.10;;;;;;4136381;28;20371;-90
2023/09/27 04:11:30;;;;;;;;;;;12.90;72.10;;;;;;4137297;28;20268;-88
2023/09/27 04:13:50;;;;;;;;;;;12.90;72.10;;;;;;4137453;28;20303;-90
2023/09/27 04:16:12;;;;;;;;;;;12.80;72.10;;;;;;4139846;28;20815;-90
2023/09/27 04:18:32;;;;;;;;;;;12.80;72.00;;;;;;4138590;28;20319;-92
2023/09/27 04:21:07;;;;;;;;;;;12.80;72.00;;;;;;4137383;28;20199;-92
2023/09/27 04:33:22;;;;;;;;;;;;;;;;;;;;;
2023/09/27 04:39:39;;;;;;;;;;;;;;;;;;;;;
2023/09/27 04:42:43;;;;;;;;;;;12.70;72.20;;;;;;3951587;29;20009;-91
2023/09/27 04:57:00;;;;;;;;;;;12.70;72.70;;;;;;4206636;27;19927;-84
2023/09/27 04:59:21;;;;;;;;;;;12.70;72.80;;;;;;4202769;28;19987;-85
2023/09/27 05:01:41;;;;;;;;;;;12.70;72.80;;;;;;4199355;28;19920;-85
2023/09/27 05:04:02;;;;;;;;;;;12.70;72.80;;;;;;4201115;28;20019;-84
2023/09/27 05:06:23;;;;;;;;;;;12.70;72.80;;;;;;4200954;28;19960;-84
2023/09/27 05:08:44;;;;;;;;;;;12.70;72.80;;;;;;4205491;28;19959;-85
2023/09/27 05:11:04;;;;;;;;;;;12.70;72.80;;;;;;4202730;28;19967;-84
2023/09/27 05:13:28;;;;;;;;;;;12.70;72.80;;;;;;4199259;28;19908;-85
2023/09/27 05:15:49;;;;;;;;;;;12.70;72.80;;;;;;4202326;28;19968;-85
2023/09/27 05:18:10;;;;;;;;;;;12.80;73.00;;;;;;4202169;28;19916;-85
2023/09/27 05:20:31;;;;;;;;;;;12.80;73.00;;;;;;4201386;28;19917;-85
2023/09/27 05:22:51;;;;;;;;;;;12.80;73.00;;;;;;4200196;28;19920;-86
2023/09/27 05:25:10;;;;;;;;;;;12.80;73.00;;;;;;4200511;28;19961;-85
2023/09/27 05:32:07;;;;;;;;;;;12.70;73.10;;;;;;4217582;28;19925;-85
2023/09/27 05:34:29;;;;;;;;;;;12.80;73.10;;;;;;4202623;28;19923;-85
2023/09/27 05:36:33;;;;;;;;;;;12.70;73.10;;;;;;4197014;28;20050;-85
2023/09/27 05:38:54;;;;;;;;;;;12.70;73.10;;;;;;4178841;28;19924;-85
2023/09/27 05:41:15;;;;;;;;;;;12.70;73.20;;;;;;4168297;28;19969;-86
2023/09/27 05:43:35;;;;;;;;;;;12.80;73.30;;;;;;4182187;28;19913;-85
2023/09/27 05:45:57;;;;;;;;;;;12.90;73.50;;;;;;4182778;28;19944;-86
2023/09/27 05:48:17;;;;;;;;;;;12.80;74.20;;;;;;4182040;28;19951;-86
2023/09/27 05:50:40;;;;;;;;;;;12.90;73.60;;;;;;4181447;28;19916;-86
2023/09/27 05:53:01;;;;;;;;;;;12.90;73.70;;;;;;4183601;28;19916;-87
2023/09/27 05:55:22;;;;;;;;;;;13.00;73.70;;;;;;4183117;28;19924;-86
2023/09/27 05:57:43;;;;;;;;;;;13.00;74.00;;;;;;4183048;28;19921;-87
2023/09/27 06:00:14;;;;;;;;;;;12.90;73.60;;;;;;4180640;28;19995;-87
2023/09/27 06:02:17;;;;;;;;;;;13.00;73.90;;;;;;4165169;28;20374;-86
2023/09/27 06:04:19;;;;;;;;;;;13.20;74.10;;;;;;4180837;28;20070;-86
2023/09/27 06:06:19;;;;;;;;;;;13.20;74.10;;;;;;4181748;28;19917;-86
2023/09/27 06:08:20;;;;;;;;;;;13.20;74.30;;;;;;4152960;28;19920;-86
2023/09/27 06:10:22;;;;;;;;;;;13.30;74.40;;;;;;4169732;28;20019;-86
2023/09/27 06:12:43;;;;;;;;;;;13.30;74.50;;;;;;4170401;28;19917;-86
2023/09/27 06:15:03;;;;;;;;;;;13.40;74.60;;;;;;4158962;28;20393;-86
2023/09/27 06:17:24;;;;;;;;;;;13.40;74.80;;;;;;4156728;28;19988;-86
2023/09/27 06:19:45;;;;;;;;;;;13.50;75.00;;;;;;4170186;28;20004;-86
2023/09/27 06:22:05;;;;;;;;;;;13.60;75.10;;;;;;4154198;28;19996;-86
2023/09/27 06:24:07;;;;;;;;;;;13.70;75.10;;;;;;4168202;28;19956;-86
2023/09/27 06:26:09;;;;;;;;;;;13.70;75.10;;;;;;4168038;28;19924;-87
2023/09/27 06:28:13;;;;;;;;;;;13.80;75.20;;;;;;4154230;28;19909;-86
2023/09/27 06:30:14;;;;;;;;;;;13.90;75.60;;;;;;4166757;28;19921;-85
2023/09/27 06:32:15;;;;;;;;;;;14.00;75.50;;;;;;4171781;28;20704;-86
2023/09/27 06:34:16;;;;;;;;;;;14.10;75.50;;;;;;4169778;28;19916;-86
2023/09/27 06:36:16;;;;;;;;;;;14.10;75.50;;;;;;4168407;28;19961;-86
2023/09/27 06:38:21;;;;;;;;;;;14.20;75.70;;;;;;4169217;28;20313;-87
2023/09/27 06:40:24;;;;;;;;;;;14.30;75.80;;;;;;4154236;28;19921;-86
2023/09/27 06:42:25;;;;;;;;;;;14.40;75.90;;;;;;4154351;28;19922;-86
2023/09/27 06:44:25;;;;;;;;;;;14.40;75.80;;;;;;4167687;28;20011;-86
2023/09/27 06:46:26;;;;;;;;;;;14.50;75.80;;;;;;4168809;28;19916;-86
2023/09/27 06:48:27;;;;;;;;;;;14.60;75.70;;;;;;4153238;28;19921;-86
2023/09/27 06:50:28;;;;;;;;;;;14.60;75.60;;;;;;4170064;28;19970;-86
2023/09/27 06:52:29;;;;;;;;;;;14.70;75.60;;;;;;4166484;28;19921;-86
2023/09/27 06:54:29;;;;;;;;;;;14.90;75.80;;;;;;4168813;28;19920;-87
2023/09/27 06:56:30;;;;;;;;;;;14.90;75.80;;;;;;4170588;28;19943;-86
2023/09/27 06:58:30;;;;;;;;;;;15.00;75.80;;;;;;4154424;28;19917;-87
2023/09/27 07:00:31;;;;;;;;;;;15.00;75.90;;;;;;4169821;28;19947;-86
2023/09/27 07:02:31;;;;;;;;;;;15.20;75.90;;;;;;4171312;28;20382;-86
2023/09/27 07:04:32;;;;;;;;;;;15.30;75.90;;;;;;4169444;28;19917;-86
2023/09/27 07:06:32;;;;;;;;;;;15.30;75.70;;;;;;4170680;28;19925;-86
2023/09/27 07:08:33;;;;;;;;;;;15.40;75.60;;;;;;4170027;28;20000;-86
2023/09/27 07:10:34;;;;;;;;;;;15.40;76.40;;;;;;4169611;28;19921;-86
2023/09/27 07:12:35;;;;;;;;;;;15.50;76.40;;;;;;4153413;28;19925;-86
2023/09/27 07:14:36;;;;;;;;;;;15.60;76.10;;;;;;4169737;28;20003;-86
2023/09/27 07:16:36;;;;;;;;;;;15.60;76.00;;;;;;4149429;28;19984;-86
2023/09/27 07:18:37;;;;;;;;;;;15.70;76.30;;;;;;4169154;28;19928;-86
2023/09/27 07:20:40;;;;;;;;;;;15.60;76.50;;;;;;4151580;28;19914;-87
2023/09/27 07:22:42;;;;;;;;;;;15.80;76.80;;;;;;4169329;28;19963;-86
2023/09/27 07:24:42;;;;;;;;;;;15.80;76.90;;;;;;4168965;28;19921;-87
2023/09/27 07:26:43;;;;;;;;;;;15.90;76.70;;;;;;4170090;28;19987;-87
2023/09/27 07:28:45;;;;;;;;;;;15.90;76.60;;;;;;4168467;28;19912;-87
2023/09/27 07:30:45;;;;;;;;;;;16.00;76.60;;;;;;4166755;28;19924;-86
2023/09/27 07:32:46;;;;;;;;;;;16.00;76.60;;;;;;4171153;28;19913;-86
2023/09/27 07:34:47;;;;;;;;;;;16.10;76.60;;;;;;4154772;28;19944;-87
2023/09/27 07:36:48;;;;;;;;;;;16.10;76.50;;;;;;4171468;28;20027;-87
2023/09/27 07:38:48;;;;;;;;;;;16.20;76.30;;;;;;4169894;28;19916;-86
2023/09/27 07:40:49;;;;;;;;;;;16.20;76.00;;;;;;4170842;28;19979;-86
2023/09/27 07:42:51;;;;;;;;;;;16.30;75.80;;;;;;4166488;28;20003;-86
2023/09/27 07:44:51;;;;;;;;;;;16.30;76.00;;;;;;4146198;28;19939;-86
2023/09/27 07:46:52;;;;;;;;;;;16.40;76.00;;;;;;4167224;28;20039;-87
2023/09/27 07:48:52;;;;;;;;;;;16.40;76.00;;;;;;4170461;28;19924;-87
2023/09/27 07:50:54;;;;;;;;;;;16.40;75.70;;;;;;4170341;28;20436;-87
2023/09/27 07:52:55;;;;;;;;;;;16.50;75.70;;;;;;4170184;28;19916;-86
2023/09/27 07:54:58;;;;;;;;;;;16.50;75.90;;;;;;4171209;28;19919;-87
2023/09/27 07:56:59;;;;;;;;;;;16.60;75.80;;;;;;4169110;28;19928;-86
2023/09/27 07:59:00;;;;;;;;;;;16.60;75.50;;;;;;4167150;28;19916;-87
2023/09/27 08:01:01;;;;;;;;;;;16.60;75.40;;;;;;4190802;28;19917;-86
2023/09/27 08:03:02;;;;;;;;;;;16.70;75.30;;;;;;4168110;28;19914;-87
2023/09/27 08:05:09;;;;;;;;;;;16.80;75.40;;;;;;4179273;28;19962;-87
2023/09/27 08:07:11;;;;;;;;;;;16.80;75.30;;;;;;4169456;28;20468;-87
2023/09/27 08:09:14;;;;;;;;;;;16.90;75.10;;;;;;4155342;28;19975;-87
2023/09/27 08:11:14;;;;;;;;;;;17.00;75.70;;;;;;4134971;28;19924;-86
2023/09/27 08:13:16;;;;;;;;;;;17.00;74.80;;;;;;4166227;28;19913;-87
2023/09/27 08:15:37;;;;;;;;;;;17.10;74.80;;;;;;4152389;28;20383;-87
2023/09/27 08:17:58;;;;;;;;;;;17.10;74.80;;;;;;4115614;28;20367;-87
2023/09/27 08:20:19;;;;;;;;;;;17.20;74.70;;;;;;4167384;28;20349;-86
2023/09/27 08:22:39;;;;;;;;;;;17.30;74.80;;;;;;4166270;28;20467;-86
2023/09/27 08:25:00;;;;;;;;;;;17.40;74.70;;;;;;4167940;28;19921;-87
2023/09/27 08:27:20;;;;;;;;;;;17.50;74.80;;;;;;4154630;28;20421;-87
2023/09/27 08:29:42;;;;;;;;;;;17.60;74.90;;;;;;4168508;28;20738;-86
2023/09/27 08:32:05;;;;;;;;;;;17.80;74.90;;;;;;4161736;28;20360;-86
2023/09/27 08:34:25;;;;;;;;;;;17.80;74.70;;;;;;4169152;28;20433;-87
2023/09/27 08:36:46;;;;;;;;;;;17.90;74.70;;;;;;4164101;28;20432;-87
2023/09/27 08:38:47;;;;;;;;;;;18.00;74.70;;;;;;4165860;28;20016;-87
2023/09/27 08:40:48;;;;;;;;;;;18.10;74.90;;;;;;4167624;28;19959;-87
2023/09/27 08:43:00;;;;;;;;;;;18.20;74.70;;;;;;4148060;28;19948;-87
2023/09/27 08:45:22;;;;;;;;;;;18.20;74.50;;;;;;4159078;28;19936;-87
2023/09/27 08:47:44;;;;;;;;;;;18.40;74.40;;;;;;4164940;28;20444;-87
2023/09/27 08:50:05;;;;;;;;;;;18.40;74.20;;;;;;4150072;28;20311;-87
2023/09/27 08:52:27;;;;;;;;;;;18.50;74.10;;;;;;4154309;28;20340;-87
2023/09/27 08:54:48;;;;;;;;;;;18.60;74.00;;;;;;4154165;28;20414;-87
2023/09/27 08:57:09;;;;;;;;;;;18.60;73.80;;;;;;4166242;28;20260;-86
2023/09/27 08:59:30;;;;;;;;;;;18.80;73.70;;;;;;4165593;28;20501;-87
2023/09/27 09:01:52;;;;;;;;;;;18.80;74.30;;;;;;4168016;28;20378;-87
2023/09/27 09:04:13;;;;;;;;;;;18.90;73.50;;;;;;4165540;28;19959;-86
2023/09/27 09:06:35;;;;;;;;;;;19.00;73.40;;;;;;4169663;28;20280;-87
2023/09/27 09:08:55;;;;;;;;;;;19.00;73.30;;;;;;4168521;28;20505;-88
2023/09/27 09:11:16;;;;;;;;;;;19.10;73.20;;;;;;4168849;28;20570;-86
2023/09/27 09:14:03;;;;;;;;;;;19.20;73.00;;;;;;4150554;28;19924;-87
2023/09/27 09:16:24;;;;;;;;;;;19.30;73.00;;;;;;4156497;28;20341;-87
2023/09/27 09:18:47;;;;;;;;;;;19.40;73.00;;;;;;4167432;28;20298;-87
2023/09/27 09:21:08;;;;;;;;;;;19.50;73.70;;;;;;4156343;28;19913;-87
2023/09/27 09:23:30;;;;;;;;;;;19.60;72.50;;;;;;4167214;28;20539;-87
2023/09/27 09:25:50;;;;;;;;;;;19.70;72.30;;;;;;4168910;28;20291;-86
2023/09/27 09:28:14;;;;;;;;;;;19.70;72.10;;;;;;4168396;28;20362;-87
2023/09/27 09:30:37;;;;;;;;;;;19.80;72.00;;;;;;4154180;28;20303;-87
2023/09/27 09:32:58;;;;;;;;;;;19.80;71.80;;;;;;4167733;28;20703;-87
2023/09/27 09:35:30;;;;;;;;;;;19.90;71.80;;;;;;4167627;28;20362;-87
2023/09/27 09:37:50;;;;;;;;;;;20.00;71.70;;;;;;4167151;28;20578;-87
2023/09/27 09:40:14;;;;;;;;;;;20.00;71.70;;;;;;4154975;28;20260;-86
2023/09/27 09:42:35;;;;;;;;;;;20.10;71.50;;;;;;4156757;28;20606;-88
2023/09/27 09:45:14;;;;;;;;;;;20.20;71.50;;;;;;4149585;28;19917;-87
2023/09/27 09:47:37;;;;;;;;;;;20.30;70.60;;;;;;4171267;28;19920;-87
2023/09/27 09:49:58;;;;;;;;;;;20.40;70.50;;;;;;4168990;28;19925;-88
2023/09/27 09:52:22;;;;;;;;;;;20.40;70.40;;;;;;4156517;28;20768;-87
2023/09/27 09:54:47;;;;;;;;;;;20.50;70.50;;;;;;4157994;28;20293;-88
2023/09/27 09:57:09;;;;;;;;;;;20.60;71.30;;;;;;4160213;28;20332;-87
2023/09/27 09:59:37;;;;;;;;;;;20.60;69.70;;;;;;4171966;28;20441;-87
2023/09/27 10:01:59;;;;;;;;;;;20.70;69.90;;;;;;4168725;28;19921;-88
2023/09/27 10:04:21;;;;;;;;;;;20.70;69.90;;;;;;4157471;28;19920;-87
2023/09/27 10:06:42;;;;;;;;;;;20.90;69.80;;;;;;4155517;28;20622;-87
2023/09/27 10:09:06;;;;;;;;;;;20.90;69.60;;;;;;4169250;28;20402;-87
2023/09/27 10:11:26;;;;;;;;;;;21.00;69.60;;;;;;4156994;28;19923;-87
2023/09/27 10:13:45;;;;;;;;;;;21.00;69.40;;;;;;4156881;28;20014;-87
2023/09/27 10:16:05;;;;;;;;;;;21.00;68.80;;;;;;4172449;28;20671;-87
2023/09/27 10:18:24;;;;;;;;;;;21.10;70.00;;;;;;4170109;28;19928;-88
2023/09/27 10:21:06;;;;;;;;;;;21.20;69.40;;;;;;4168673;28;19923;-88
2023/09/27 10:23:25;;;;;;;;;;;21.30;69.30;;;;;;4169756;28;19927;-86
2023/09/27 10:25:48;;;;;;;;;;;21.30;69.40;;;;;;4167750;28;20012;-88
2023/09/27 10:28:08;;;;;;;;;;;21.40;69.20;;;;;;4156405;28;19921;-88
2023/09/27 10:30:48;;;;;;;;;;;21.50;69.30;;;;;;4171902;28;19926;-88
2023/09/27 10:33:16;;;;;;;;;;;21.50;69.20;;;;;;4156668;28;20020;-88
2023/09/27 10:35:36;;;;;;;;;;;21.60;68.80;;;;;;4174190;28;19967;-87
2023/09/27 10:37:59;;;;;;;;;;;21.70;69.70;;;;;;4175629;28;19950;-88
2023/09/27 10:40:19;;;;;;;;;;;21.70;69.60;;;;;;4173894;28;20678;-87
2023/09/27 10:42:42;;;;;;;;;;;21.80;68.60;;;;;;4193587;28;19978;-88
2023/09/27 10:45:08;;;;;;;;;;;21.90;68.90;;;;;;4195887;28;19915;-88
2023/09/27 10:47:27;;;;;;;;;;;21.90;67.80;;;;;;4183664;28;19943;-87
2023/09/27 10:49:48;;;;;;;;;;;21.90;67.50;;;;;;4178789;28;20036;-88
2023/09/27 10:52:14;;;;;;;;;;;22.00;67.70;;;;;;4172720;28;19961;-88
2023/09/27 10:54:34;;;;;;;;;;;22.00;67.00;;;;;;4156184;28;19943;-88
2023/09/27 10:56:55;;;;;;;;;;;22.00;66.90;;;;;;4170222;28;19928;-86
2023/09/27 10:59:21;;;;;;;;;;;22.00;66.80;;;;;;4170599;28;19944;-87
2023/09/27 11:01:42;;;;;;;;;;;22.00;66.60;;;;;;4165939;28;20389;-87
2023/09/27 11:04:03;;;;;;;;;;;22.00;67.30;;;;;;4166288;28;20118;-87
2023/09/27 11:06:22;;;;;;;;;;;22.00;66.50;;;;;;4169766;28;20001;-87
2023/09/27 11:08:41;;;;;;;;;;;22.10;66.70;;;;;;4171028;28;20727;-87
2023/09/27 11:11:01;;;;;;;;;;;22.10;67.50;;;;;;4190395;28;19912;-87
2023/09/27 11:15:26;;;;;;;;;;;22.10;65.80;;;;;;4152057;28;20230;-94
2023/09/27 11:17:53;;;;;;;;;;;22.10;65.70;;;;;;4153747;28;19925;-93
2023/09/27 11:20:15;;;;;;;;;;;22.10;66.20;;;;;;4153930;28;19928;-92
2023/09/27 11:22:35;;;;;;;;;;;22.10;66.70;;;;;;4150564;28;20397;-94
2023/09/27 11:25:09;;;;;;;;;;;22.20;66.50;;;;;;4150229;28;20006;-93
2023/09/27 11:27:30;;;;;;;;;;;22.30;66.30;;;;;;4116019;28;19988;-93
2023/09/27 11:30:17;;;;;;;;;;;22.30;66.40;;;;;;4103854;28;19961;-95
2023/09/27 11:32:49;;;;;;;;;;;22.30;65.70;;;;;;4166061;28;20030;-95
2023/09/27 11:35:09;;;;;;;;;;;22.30;65.90;;;;;;4155252;28;19928;-94
2023/09/27 11:40:38;;;;;;;;;;;22.30;65.70;;;;;;4170757;22;19968;-93
2023/09/27 11:43:06;;;;;;;;;;;22.40;65.80;;;;;;4152264;28;20507;-94
2023/09/27 11:45:26;;;;;;;;;;;22.40;65.50;;;;;;4163402;28;19951;-94
2023/09/27 11:51:04;;;;;;;;;;;22.50;65.90;;;;;;4195331;23;19936;-93
2023/09/27 11:53:54;;;;;;;;;;;22.50;65.60;;;;;;4175877;28;20439;-93
2023/09/27 11:56:15;;;;;;;;;;;22.50;65.80;;;;;;4359075;22;21234;-86
2023/09/27 11:58:34;;;;;;;;;;;22.60;65.80;;;;;;4186152;28;19935;-88
2023/09/27 12:00:53;;;;;;;;;;;22.70;65.80;;;;;;4182437;28;19987;-87
2023/09/27 12:03:13;;;;;;;;;;;22.70;66.20;;;;;;4186820;28;19924;-87
2023/09/27 12:05:36;;;;;;;;;;;22.80;65.30;;;;;;4188512;28;19979;-88
2023/09/27 12:07:55;;;;;;;;;;;22.80;64.10;;;;;;4188834;28;19923;-87
2023/09/27 12:10:14;;;;;;;;;;;22.80;64.70;;;;;;4189571;28;20128;-88
2023/09/27 12:12:33;;;;;;;;;;;22.80;64.10;;;;;;4186449;28;20001;-87
2023/09/27 12:14:53;;;;;;;;;;;22.80;63.80;;;;;;4188487;28;20065;-86
2023/09/27 12:17:12;;;;;;;;;;;22.90;64.60;;;;;;4184119;28;19969;-87
2023/09/27 12:19:34;;;;;;;;;;;22.90;64.60;;;;;;4187079;28;20019;-86
2023/09/27 12:21:53;;;;;;;;;;;22.90;64.30;;;;;;4183928;28;19931;-87
2023/09/27 12:24:13;;;;;;;;;;;23.00;64.60;;;;;;4198553;28;19927;-88
2023/09/27 12:26:36;;;;;;;;;;;22.90;63.50;;;;;;4186097;28;20538;-87
2023/09/27 12:28:56;;;;;;;;;;;23.00;63.60;;;;;;4187408;28;20015;-87
2023/09/27 12:31:47;;;;;;;;;;;23.00;62.30;;;;;;4187923;28;19931;-87
2023/09/27 12:34:19;;;;;;;;;;;23.10;62.70;;;;;;4104715;28;20017;-88
2023/09/27 12:36:53;;;;;;;;;;;23.10;62.20;;;;;;4107706;28;19972;-87
2023/09/27 12:39:13;;;;;;;;;;;23.10;62.50;;;;;;4122227;28;19925;-87
2023/09/27 12:41:28;;;;;;;;;;;23.10;62.70;;;;;;4115962;28;20500;-88
2023/09/27 12:43:29;;;;;;;;;;;23.10;62.10;;;;;;4121014;28;20007;-87
2023/09/27 12:45:37;;;;;;;;;;;23.10;62.50;;;;;;4116966;28;19925;-88
2023/09/27 12:47:43;;;;;;;;;;;23.10;62.30;;;;;;4119136;28;19922;-88
2023/09/27 12:49:43;;;;;;;;;;;23.10;61.90;;;;;;4120087;28;19953;-88
2023/09/27 12:52:04;;;;;;;;;;;23.10;62.20;;;;;;4120886;28;19918;-87
2023/09/27 12:54:05;;;;;;;;;;;23.10;62.50;;;;;;4104138;28;19918;-88
2023/09/27 12:56:26;;;;;;;;;;;23.10;62.70;;;;;;4115679;28;19982;-87
2023/09/27 12:58:46;;;;;;;;;;;23.10;63.00;;;;;;4116960;28;20391;-88
2023/09/27 13:00:54;;;;;;;;;;;23.20;63.10;;;;;;4114224;28;19996;-87
2023/09/27 13:03:18;;;;;;;;;;;23.20;62.50;;;;;;4104411;28;19922;-87
2023/09/27 13:05:38;;;;;;;;;;;23.20;62.70;;;;;;4119220;28;20419;-87
2023/09/27 13:07:59;;;;;;;;;;;23.20;62.50;;;;;;4122437;28;19965;-86
2023/09/27 13:10:19;;;;;;;;;;;23.30;62.90;;;;;;4131503;28;19991;-87
2023/09/27 13:12:40;;;;;;;;;;;23.30;62.90;;;;;;4184767;28;20383;-87
2023/09/27 13:15:00;;;;;;;;;;;23.30;62.90;;;;;;4182888;28;19917;-87
2023/09/27 13:17:22;;;;;;;;;;;23.30;63.10;;;;;;4187149;28;19928;-87
2023/09/27 13:19:43;;;;;;;;;;;23.30;62.90;;;;;;4190225;28;19920;-86
2023/09/27 13:22:04;;;;;;;;;;;23.30;62.50;;;;;;4191276;28;19916;-86
2023/09/27 13:24:24;;;;;;;;;;;23.40;62.30;;;;;;4191164;28;20699;-86
2023/09/27 13:26:45;;;;;;;;;;;23.40;62.40;;;;;;4187286;28;20061;-87
2023/09/27 13:29:05;;;;;;;;;;;23.40;61.70;;;;;;4183950;28;19984;-86
2023/09/27 13:31:33;;;;;;;;;;;23.40;61.90;;;;;;4186623;28;19970;-87
2023/09/27 13:33:53;;;;;;;;;;;23.40;61.50;;;;;;4185721;28;19916;-86
2023/09/27 13:36:14;;;;;;;;;;;23.40;61.90;;;;;;4189667;28;20658;-87
2023/09/27 13:38:36;;;;;;;;;;;23.50;62.20;;;;;;4186487;28;19921;-86
2023/09/27 13:40:58;;;;;;;;;;;23.50;62.20;;;;;;4191881;28;19924;-86
2023/09/27 13:43:19;;;;;;;;;;;23.50;62.10;;;;;;4190931;28;19921;-86
2023/09/27 13:45:40;;;;;;;;;;;23.50;62.00;;;;;;4192839;28;19970;-87
2023/09/27 13:48:01;;;;;;;;;;;23.50;62.10;;;;;;4187907;28;19921;-87
2023/09/27 13:50:22;;;;;;;;;;;23.50;61.80;;;;;;4188308;28;19912;-87
2023/09/27 13:52:42;;;;;;;;;;;23.50;61.80;;;;;;4182364;28;19946;-86